Anchorage, AK (99522)

4:44 PM AKDT on September 17, 2014 (GMT -0800)
Casey Cusack Estates | Change Station
CLOSE
Current Station
Personal Weather Station
Location: Anchorage, AK
Elevation: 80 ft
Nearby Weather Stations

Elev 80 ft 61.12 °N, 149.92 °W | Updated 1 minute ago

Scattered Clouds
Scattered Clouds
52.0 °F
Feels Like 52.0 °F
N
2.2
Wind Variable Wind from East

Today
High -- | Low -- °F
--% Chance of Precip.
Yesterday
High -- | Low -- °F
Precip. -- in
7:31 AM 8:14 PM
Waning Crescent, 32% visible
Pressure 29.27 in
Visibility 10.0 miles
Clouds Few 7500 ft
Scattered Clouds 10000 ft
Dew Point 49 °F
Humidity 89%
Rainfall 0.00 in
Snow Depth 0 in , 0 in , 2 in
UV 2 out of 12
Pollen Not available.
Air Quality Not available.
Flu Activity Not available.
METAR PALH 172353Z 32010KT 10SM FEW075 SCT100 12/08 A2926 RMK AO2 SLP910 T01170078 10117 20094 56024

More Conditions Fewer Conditions

Pressure 29.27 in
Visibility 10.0 miles
Clouds Few 7500 ft
Scattered Clouds 10000 ft
Dew Point 49 °F
Humidity 89%
Rainfall 0.00 in
Snow Depth 0 in , 0 in , 2 in
UV 2 out of 12
Pollen Not available.
Air Quality Not available.
Flu Activity Not available.
METAR PALH 172353Z 32010KT 10SM FEW075 SCT100 12/08 A2926 RMK AO2 SLP910 T01170078 10117 20094 56024

More Conditions Fewer Conditions

10-Day Weather Forecast

Almanac

Astronomy

Sep. 17, 2014 Rise Set
Actual Time 7:31 AM AKDT 8:14 PM AKDT
Civil Twilight 6:48 AM AKDT 8:58 PM AKDT
Nautical Twilight 5:54 AM AKDT 9:51 PM AKDT
Astronomical Twilight 4:53 AM AKDT 10:51 PM AKDT
Moon 12:27 AM AKDT (9/17) 5:39 PM AKDT (9/17)
Length of Visible Light 14h 10m
Length of Day
12h 42m
Tomorrow will be 5m 40s shorter.
Waning Crescent, 32% of the Moon is Illuminated
Today
Waning Crescent
Sep 24
New
Oct 1
First Quarter
Oct 8
Full
Oct 15
Last Quarter

Today's Extremes

State Highs State Lows

Community

WunderPhotos

Upload Photos

1,754,224 photos uploaded!

Nearby

Snow Depth

Station Depth Elevation
Eagle Summit 0 in 3650 ft
Port Graham 0 in 300 ft
Susitna Valley High 10 in 375 ft
Coldfoot 0 in 1040 ft
Atigun Pass 2 in 4800 ft

Earthquake Activity

City Distance Mag. Time & Date
No recent earthquake activity has been reported nearby.
Minimum magnitude displayed is 2.5.

Coastal Water Temperatures

Place Temperature
No Stations Reporting

Nearby Weather Stations